createdAt,value
2018-03-15T00:02:00.640Z,45.80
2018-03-15T00:04:34.083Z,45.70
2018-03-15T00:07:02.144Z,45.70
2018-03-15T00:09:30.167Z,45.50
2018-03-15T00:11:58.208Z,45.70
2018-03-15T00:14:26.283Z,45.70
2018-03-15T00:16:55.121Z,45.50
2018-03-15T00:19:23.153Z,45.50
2018-03-15T00:21:52.009Z,45.50
2018-03-15T00:24:20.057Z,45.50
2018-03-15T00:26:48.083Z,45.70
2018-03-15T00:29:16.148Z,45.60
2018-03-15T00:31:45.663Z,45.50
2018-03-15T00:34:14.084Z,45.70
2018-03-15T00:36:42.139Z,45.50
2018-03-15T00:39:10.185Z,45.50
2018-03-15T00:41:38.220Z,45.60
2018-03-15T00:44:06.554Z,45.50
2018-03-15T00:46:34.595Z,45.40
2018-03-15T00:49:02.676Z,45.50
2018-03-15T00:51:30.714Z,45.90
2018-03-15T00:53:58.768Z,45.60
2018-03-15T00:56:26.794Z,45.70
2018-03-15T00:58:54.825Z,45.60
2018-03-15T01:01:22.892Z,45.60
2018-03-15T01:03:50.960Z,45.50
2018-03-15T01:06:19.011Z,45.60
2018-03-15T01:08:47.022Z,45.60
2018-03-15T01:11:15.114Z,45.40
2018-03-15T01:13:46.126Z,45.30
2018-03-15T01:16:17.824Z,45.60
2018-03-15T01:18:48.124Z,45.60
2018-03-15T01:21:18.276Z,45.60
2018-03-15T01:23:46.290Z,45.60
2018-03-15T01:26:16.897Z,45.60
2018-03-15T01:28:45.731Z,45.50
2018-03-15T01:31:14.666Z,45.60
2018-03-15T01:33:47.319Z,45.70
2018-03-15T01:36:19.860Z,45.50
2018-03-15T01:38:49.663Z,45.50
2018-03-15T01:41:18.634Z,45.50
2018-03-15T01:43:48.564Z,45.50
2018-03-15T01:46:16.854Z,45.60
2018-03-15T01:48:45.248Z,45.50
2018-03-15T01:51:13.262Z,45.40
2018-03-15T01:53:41.387Z,45.70
2018-03-15T01:56:12.343Z,45.70
2018-03-15T01:58:40.370Z,45.50
2018-03-15T02:01:09.976Z,45.50
2018-03-15T02:03:38.027Z,45.50
2018-03-15T02:06:07.525Z,45.70
2018-03-15T02:08:35.602Z,45.80
2018-03-15T02:11:04.098Z,46.00
2018-03-15T02:13:32.193Z,45.80
2018-03-15T02:16:02.505Z,45.80
2018-03-15T02:18:30.534Z,46.50
2018-03-15T02:20:59.255Z,45.90
2018-03-15T02:23:27.305Z,46.00
2018-03-15T02:25:55.394Z,46.00
2018-03-15T02:28:23.423Z,45.90
2018-03-15T02:30:51.464Z,46.00
2018-03-15T02:33:19.497Z,46.10
2018-03-15T02:35:47.545Z,46.10
2018-03-15T02:38:15.609Z,46.20
2018-03-15T02:40:44.513Z,46.10
2018-03-15T02:43:13.531Z,46.20
2018-03-15T02:45:41.549Z,46.20
2018-03-15T02:48:09.588Z,46.30
2018-03-15T02:50:38.408Z,46.40
2018-03-15T02:53:06.424Z,46.40
2018-03-15T02:55:34.475Z,46.10
2018-03-15T02:58:02.663Z,46.20
2018-03-15T03:00:30.680Z,46.00
2018-03-15T03:03:00.165Z,46.20
2018-03-15T03:05:28.183Z,46.20
2018-03-15T03:07:56.246Z,46.20
2018-03-15T03:10:24.282Z,46.20
2018-03-15T03:12:52.294Z,46.20
2018-03-15T03:15:20.316Z,46.30
2018-03-15T03:17:49.120Z,46.10
2018-03-15T03:20:17.194Z,46.10
2018-03-15T03:22:46.023Z,46.10
2018-03-15T03:25:14.056Z,46.00
2018-03-15T03:27:42.108Z,46.00
2018-03-15T03:30:12.090Z,46.10
2018-03-15T03:32:40.167Z,46.10
2018-03-15T03:35:08.190Z,46.10
2018-03-15T03:37:36.209Z,46.10
2018-03-15T03:40:04.232Z,46.00
2018-03-15T03:42:32.300Z,46.10
2018-03-15T03:45:00.378Z,46.10
2018-03-15T03:47:29.197Z,46.20
2018-03-15T03:49:57.246Z,46.10
2018-03-15T03:52:25.272Z,46.10
2018-03-15T03:54:53.308Z,46.10
2018-03-15T03:57:22.123Z,46.00
2018-03-15T03:59:50.155Z,46.00
2018-03-15T04:02:18.196Z,46.10
2018-03-15T04:04:46.206Z,46.10
2018-03-15T04:07:15.014Z,46.20
2018-03-15T04:09:43.064Z,46.10
2018-03-15T04:12:11.120Z,46.30
2018-03-15T04:14:39.172Z,46.20
2018-03-15T04:17:08.855Z,46.30
2018-03-15T04:19:36.901Z,46.30
2018-03-15T04:22:04.979Z,46.20
2018-03-15T04:24:33.016Z,45.90
2018-03-15T04:27:01.033Z,45.90
2018-03-15T04:29:29.055Z,45.80
2018-03-15T04:31:57.096Z,46.80
2018-03-15T04:34:25.972Z,46.70
2018-03-15T04:36:54.009Z,46.50
2018-03-15T04:39:22.092Z,46.70
2018-03-15T04:41:51.053Z,46.70
2018-03-15T04:44:19.078Z,46.80
2018-03-15T04:46:47.095Z,46.60
2018-03-15T04:49:15.240Z,46.70
2018-03-15T04:51:43.299Z,46.40
2018-03-15T04:54:11.339Z,46.30
2018-03-15T04:56:39.411Z,46.30
2018-03-15T04:59:07.453Z,46.20
2018-03-15T05:01:36.363Z,47.10
2018-03-15T05:04:04.414Z,46.10
2018-03-15T05:06:32.438Z,46.30
2018-03-15T05:09:00.654Z,46.60
2018-03-15T05:11:28.693Z,46.80
2018-03-15T05:13:56.730Z,46.90
2018-03-15T05:16:24.762Z,47.20
2018-03-15T05:18:52.794Z,47.10
2018-03-15T05:21:20.851Z,47.30
2018-03-15T05:23:48.884Z,47.60
2018-03-15T05:26:16.914Z,47.90
2018-03-15T05:28:44.980Z,44.30
2018-03-15T05:31:13.070Z,43.50
2018-03-15T05:33:41.104Z,45.40
2018-03-15T05:36:09.133Z,46.50
2018-03-15T05:38:37.166Z,47.00
2018-03-15T05:41:05.194Z,47.20
2018-03-15T05:43:33.226Z,47.40
2018-03-15T05:46:01.283Z,47.30
2018-03-15T05:48:29.294Z,47.40
2018-03-15T05:50:57.327Z,47.70
2018-03-15T05:53:25.355Z,47.70
2018-03-15T05:55:53.426Z,48.80
2018-03-15T05:58:22.579Z,48.00
2018-03-15T06:00:50.645Z,48.00
2018-03-15T06:03:18.683Z,48.10
2018-03-15T06:05:46.716Z,48.30
2018-03-15T06:08:14.753Z,48.30
2018-03-15T06:10:42.813Z,48.30
2018-03-15T06:13:10.834Z,48.40
2018-03-15T06:15:39.661Z,48.80
2018-03-15T06:18:07.701Z,48.70
2018-03-15T06:20:35.731Z,49.00
2018-03-15T06:23:03.804Z,48.90
2018-03-15T06:25:31.855Z,48.90
2018-03-15T06:27:59.900Z,48.80
2018-03-15T06:30:28.849Z,48.90
2018-03-15T06:32:56.879Z,49.00
2018-03-15T06:35:24.935Z,49.10
2018-03-15T06:37:53.731Z,49.10
2018-03-15T06:40:21.773Z,49.00
2018-03-15T06:42:49.825Z,49.10
2018-03-15T06:45:17.854Z,49.10
2018-03-15T06:47:46.099Z,49.10
2018-03-15T06:50:14.136Z,49.00
2018-03-15T06:52:42.205Z,45.80
2018-03-15T06:55:10.651Z,46.70
2018-03-15T06:57:38.701Z,47.10
2018-03-15T07:00:06.794Z,47.60
2018-03-15T07:02:34.841Z,46.80
2018-03-15T07:05:02.879Z,47.50
2018-03-15T07:07:30.904Z,47.90
2018-03-15T07:09:59.714Z,48.40
2018-03-15T07:12:27.776Z,49.00
2018-03-15T07:14:55.821Z,47.90
2018-03-15T07:17:23.891Z,48.30
2018-03-15T07:19:51.980Z,48.70
2018-03-15T07:22:20.019Z,48.60
2018-03-15T07:24:48.062Z,45.20
2018-03-15T07:27:16.212Z,45.90
2018-03-15T07:29:44.258Z,47.60
2018-03-15T07:32:12.310Z,47.50
2018-03-15T07:34:40.360Z,48.10
2018-03-15T07:37:08.417Z,48.30
2018-03-15T07:39:36.465Z,47.60
2018-03-15T07:42:05.468Z,47.90
2018-03-15T07:44:33.496Z,47.90
2018-03-15T07:47:01.530Z,48.20
2018-03-15T07:49:29.590Z,48.40
2018-03-15T07:51:57.634Z,48.50
2018-03-15T07:54:25.704Z,48.50
2018-03-15T07:56:53.744Z,48.50
2018-03-15T07:59:21.788Z,48.50
2018-03-15T08:01:50.036Z,48.50
2018-03-15T08:04:18.140Z,47.20
2018-03-15T08:06:47.114Z,45.70
2018-03-15T08:09:15.962Z,47.60
2018-03-15T08:11:44.042Z,47.50
2018-03-15T08:14:12.078Z,46.90
2018-03-15T08:16:40.153Z,47.20
2018-03-15T08:19:08.195Z,47.60
2018-03-15T08:21:36.249Z,48.00
2018-03-15T08:24:04.279Z,48.30
2018-03-15T08:26:32.322Z,48.50
2018-03-15T08:29:00.335Z,48.50
2018-03-15T08:31:28.374Z,48.50
2018-03-15T08:33:56.477Z,48.60
2018-03-15T08:36:24.501Z,48.60
2018-03-15T08:38:52.549Z,48.50
2018-03-15T08:41:20.600Z,48.60
2018-03-15T08:43:48.823Z,48.60
2018-03-15T08:46:16.901Z,48.60
2018-03-15T08:48:45.099Z,48.70
2018-03-15T08:51:13.125Z,48.70
2018-03-15T08:53:41.149Z,48.80
2018-03-15T08:56:09.951Z,48.80
2018-03-15T08:58:38.023Z,48.90
2018-03-15T09:01:06.040Z,48.80
2018-03-15T09:03:34.085Z,48.90
2018-03-15T09:06:02.138Z,48.80
2018-03-15T09:08:30.184Z,48.70
2018-03-15T09:10:58.261Z,48.70
2018-03-15T09:13:26.307Z,48.70
2018-03-15T09:15:54.369Z,48.60
2018-03-15T09:18:23.205Z,47.80
2018-03-15T09:20:51.243Z,47.80
2018-03-15T09:23:19.305Z,48.30
2018-03-15T09:25:47.383Z,48.30
2018-03-15T09:28:15.421Z,48.30
2018-03-15T09:30:44.257Z,48.30
2018-03-15T09:33:12.351Z,48.30
2018-03-15T09:35:41.224Z,48.20
2018-03-15T09:38:09.328Z,48.20
2018-03-15T09:40:37.459Z,48.80
2018-03-15T09:43:05.525Z,48.70
2018-03-15T09:45:33.720Z,48.50
2018-03-15T09:48:01.807Z,48.20
2018-03-15T09:50:29.914Z,48.00
2018-03-15T09:52:58.017Z,48.20
2018-03-15T09:55:26.100Z,48.60
2018-03-15T09:57:54.188Z,49.20
2018-03-15T10:00:22.256Z,47.80
2018-03-15T10:02:50.352Z,47.30
2018-03-15T10:05:18.470Z,47.50
2018-03-15T10:07:46.568Z,48.70
2018-03-15T10:10:14.685Z,48.50
2018-03-15T10:12:42.809Z,49.30
2018-03-15T10:15:10.925Z,49.40
2018-03-15T10:17:39.314Z,49.00
2018-03-15T10:20:07.386Z,50.10
2018-03-15T10:22:35.494Z,48.60
2018-03-15T10:25:13.608Z,48.40
2018-03-15T10:27:31.746Z,48.30
2018-03-15T10:29:59.962Z,48.30
2018-03-15T10:32:28.054Z,48.40
2018-03-15T10:35:02.401Z,48.10
2018-03-15T10:37:30.987Z,48.10
2018-03-15T10:39:59.081Z,48.20
2018-03-15T10:42:27.151Z,48.20
2018-03-15T10:45:00.810Z,48.20
2018-03-15T10:47:28.874Z,48.00
2018-03-15T10:49:57.793Z,46.60
2018-03-15T10:52:25.896Z,46.60
2018-03-15T10:54:53.984Z,48.70
2018-03-15T10:57:22.081Z,51.00
2018-03-15T10:59:50.189Z,48.70
2018-03-15T11:02:19.032Z,48.50
2018-03-15T11:04:52.662Z,48.70
2018-03-15T11:07:26.149Z,48.70
2018-03-15T11:09:54.969Z,49.20
2018-03-15T11:12:23.019Z,49.20
2018-03-15T11:14:51.110Z,49.30
2018-03-15T11:17:19.183Z,49.60
2018-03-15T11:19:47.367Z,49.50
2018-03-15T11:22:15.449Z,50.10
2018-03-15T11:24:43.534Z,49.90
2018-03-15T11:27:11.626Z,50.20
2018-03-15T11:29:39.705Z,50.00
2018-03-15T11:32:07.755Z,50.40
2018-03-15T11:34:35.853Z,51.50
2018-03-15T11:37:03.917Z,51.50
2018-03-15T11:39:32.024Z,51.20
2018-03-15T11:42:00.875Z,50.50
2018-03-15T11:44:29.120Z,50.80
2018-03-15T11:46:57.187Z,50.90
2018-03-15T11:49:25.268Z,51.10
2018-03-15T11:51:53.338Z,50.90
2018-03-15T11:54:21.432Z,50.90
2018-03-15T11:56:49.522Z,50.80
2018-03-15T11:59:17.596Z,50.90
2018-03-15T12:01:45.653Z,51.20
2018-03-15T12:04:13.739Z,51.40
2018-03-15T12:06:41.808Z,50.60
2018-03-15T12:09:10.294Z,50.60
2018-03-15T12:11:39.889Z,50.50
2018-03-15T12:14:08.024Z,50.80
2018-03-15T12:16:36.074Z,50.80
2018-03-15T12:19:04.131Z,50.70
2018-03-15T12:21:32.203Z,50.60
2018-03-15T12:24:00.234Z,50.80
2018-03-15T12:26:28.274Z,50.90
2018-03-15T12:28:56.314Z,50.80
2018-03-15T12:31:24.407Z,50.90
2018-03-15T12:33:52.452Z,50.40
2018-03-15T12:36:20.537Z,51.10
2018-03-15T12:38:48.596Z,51.00
2018-03-15T12:41:16.665Z,51.10
2018-03-15T12:43:44.728Z,51.20
2018-03-15T12:46:12.806Z,51.40
2018-03-15T12:48:40.874Z,51.30
2018-03-15T12:51:08.933Z,51.20
2018-03-15T12:53:36.993Z,51.20
2018-03-15T12:56:05.041Z,51.60
2018-03-15T12:58:33.074Z,51.60
2018-03-15T13:01:01.155Z,51.50
2018-03-15T13:03:29.526Z,51.40
2018-03-15T13:05:57.582Z,51.60
2018-03-15T13:08:25.632Z,51.50
2018-03-15T13:10:53.675Z,51.50
2018-03-15T13:13:21.763Z,51.50
2018-03-15T13:15:49.806Z,51.60
2018-03-15T13:18:17.841Z,51.60
2018-03-15T13:20:46.173Z,51.90
2018-03-15T13:23:14.231Z,51.80
2018-03-15T13:25:42.300Z,52.10
2018-03-15T13:28:10.315Z,51.90
2018-03-15T13:30:38.864Z,51.70
2018-03-15T13:33:06.921Z,51.70
2018-03-15T13:35:34.967Z,51.80
2018-03-15T13:38:03.037Z,52.20
2018-03-15T13:40:31.081Z,52.20
2018-03-15T13:42:59.162Z,52.40
2018-03-15T13:45:27.233Z,52.30
2018-03-15T13:47:56.040Z,52.30
2018-03-15T13:50:24.096Z,52.30
2018-03-15T13:52:52.141Z,52.20
2018-03-15T13:55:20.993Z,52.20
2018-03-15T13:57:49.451Z,52.20
2018-03-15T14:07:00.706Z,51.90
2018-03-15T14:09:28.762Z,52.10
2018-03-15T14:11:56.836Z,52.10
2018-03-15T14:14:24.888Z,52.00
2018-03-15T14:16:53.053Z,52.20
2018-03-15T14:19:21.894Z,51.90
2018-03-15T14:21:49.958Z,51.90
2018-03-15T14:24:18.016Z,52.00
2018-03-15T14:26:46.085Z,52.10
2018-03-15T14:29:14.210Z,52.20
2018-03-15T14:31:42.217Z,52.10
2018-03-15T14:34:10.259Z,52.20
2018-03-15T14:36:38.338Z,52.20
2018-03-15T14:39:06.428Z,52.20
2018-03-15T14:41:34.884Z,52.20
2018-03-15T14:44:02.918Z,52.40
2018-03-15T14:46:30.984Z,52.10
2018-03-15T14:48:59.047Z,48.50
2018-03-15T14:51:27.219Z,48.60
2018-03-15T14:53:55.269Z,49.00
2018-03-15T14:56:23.323Z,50.90
2018-03-15T14:58:51.397Z,52.50
2018-03-15T15:01:19.480Z,53.30
2018-03-15T15:03:47.535Z,53.80
2018-03-15T15:06:17.145Z,53.00
2018-03-15T15:08:45.258Z,53.10
2018-03-15T15:11:13.317Z,52.70
2018-03-15T15:13:41.385Z,52.80
2018-03-15T15:16:10.216Z,52.90
2018-03-15T15:18:38.284Z,52.90
2018-03-15T15:21:06.341Z,52.80
2018-03-15T15:23:34.396Z,53.10
2018-03-15T15:26:02.449Z,52.80
2018-03-15T15:28:30.521Z,52.90
2018-03-15T15:30:58.605Z,52.70
2018-03-15T15:33:26.645Z,52.90
2018-03-15T15:35:54.704Z,53.10
2018-03-15T15:38:23.541Z,52.80
2018-03-15T15:40:51.595Z,52.70
2018-03-15T15:43:19.675Z,53.10
2018-03-15T15:45:47.797Z,53.70
2018-03-15T15:48:15.857Z,53.50
2018-03-15T15:50:43.958Z,53.60
2018-03-15T15:53:12.008Z,53.50
2018-03-15T15:55:40.072Z,53.60
2018-03-15T15:58:08.138Z,53.40
2018-03-15T16:00:36.224Z,53.30
2018-03-15T16:03:04.310Z,53.40
2018-03-15T16:05:32.372Z,53.60
2018-03-15T16:08:00.453Z,53.40
2018-03-15T16:10:28.492Z,53.40
2018-03-15T16:12:56.539Z,53.70
2018-03-15T16:15:24.602Z,52.50
2018-03-15T16:17:53.435Z,53.50
2018-03-15T16:20:21.562Z,53.40
2018-03-15T16:22:50.429Z,53.80
2018-03-15T16:25:18.494Z,53.80
2018-03-15T16:27:46.554Z,53.70
2018-03-15T16:30:14.627Z,53.70
2018-03-15T16:32:42.679Z,53.60
2018-03-15T16:35:10.745Z,54.00
2018-03-15T16:37:38.826Z,54.00
2018-03-15T16:40:06.898Z,53.80
2018-03-15T16:42:34.995Z,54.20
2018-03-15T16:45:03.083Z,53.90
2018-03-15T16:47:31.298Z,53.60
2018-03-15T16:49:59.350Z,53.40
2018-03-15T16:52:27.442Z,53.70
2018-03-15T16:54:55.492Z,54.00
2018-03-15T17:04:06.965Z,53.70
2018-03-15T17:06:35.027Z,53.90
2018-03-15T17:09:03.102Z,54.00
2018-03-15T17:11:31.165Z,54.10
2018-03-15T17:13:59.968Z,54.00
2018-03-15T17:16:28.049Z,53.90
2018-03-15T17:18:56.113Z,53.80
2018-03-15T17:21:24.181Z,53.90
2018-03-15T17:23:52.236Z,54.20
2018-03-15T17:26:20.400Z,53.80
2018-03-15T17:28:48.476Z,53.70
2018-03-15T17:31:16.510Z,53.30
2018-03-15T17:33:44.563Z,53.80
2018-03-15T17:36:12.597Z,54.00
2018-03-15T17:38:40.633Z,50.10
2018-03-15T17:41:08.689Z,50.10
2018-03-15T17:43:36.705Z,51.10
2018-03-15T17:46:05.525Z,52.40
2018-03-15T17:48:33.828Z,52.30
2018-03-15T17:51:01.872Z,52.70
2018-03-15T17:53:29.956Z,52.80
2018-03-15T17:55:57.990Z,53.80
2018-03-15T17:58:26.028Z,53.30
2018-03-15T18:00:54.071Z,53.60
2018-03-15T18:03:22.110Z,53.50
2018-03-15T18:05:50.974Z,51.70
2018-03-15T18:08:19.034Z,51.60
2018-03-15T18:10:47.072Z,52.10
2018-03-15T18:13:15.095Z,51.90
2018-03-15T18:15:43.185Z,53.10
2018-03-15T18:18:11.263Z,53.50
2018-03-15T18:20:39.330Z,53.60
2018-03-15T18:23:07.363Z,53.70
2018-03-15T18:25:35.437Z,53.80
2018-03-15T18:28:03.555Z,53.70
2018-03-15T18:30:31.648Z,52.80
2018-03-15T18:32:59.684Z,52.30
2018-03-15T18:35:27.716Z,52.40
2018-03-15T18:37:55.800Z,53.40
2018-03-15T18:40:23.847Z,53.30
2018-03-15T18:42:51.914Z,53.80
2018-03-15T18:45:19.985Z,53.80
2018-03-15T18:47:48.105Z,53.90
2018-03-15T18:50:16.126Z,54.10
2018-03-15T18:52:44.157Z,54.00
2018-03-15T18:55:12.219Z,54.00
2018-03-15T18:57:40.227Z,54.10
2018-03-15T19:00:08.298Z,54.20
2018-03-15T19:02:36.347Z,54.10
2018-03-15T19:05:04.677Z,54.10
2018-03-15T19:07:32.751Z,51.70
2018-03-15T19:10:00.885Z,52.20
2018-03-15T19:12:28.905Z,53.30
2018-03-15T19:14:56.978Z,54.10
2018-03-15T19:17:25.043Z,54.90
2018-03-15T19:19:53.105Z,55.00
2018-03-15T19:22:21.168Z,54.90
2018-03-15T19:24:49.225Z,54.40
2018-03-15T19:27:17.332Z,54.70
2018-03-15T19:29:45.421Z,55.10
2018-03-15T19:32:13.528Z,55.00
2018-03-15T19:34:41.578Z,54.50
2018-03-15T19:37:09.641Z,55.00
2018-03-15T19:39:37.707Z,55.00
2018-03-15T19:42:05.757Z,54.50
2018-03-15T19:44:33.805Z,54.90
2018-03-15T19:47:01.906Z,54.70
2018-03-15T19:49:29.945Z,55.10
2018-03-15T19:51:58.100Z,54.70
2018-03-15T19:54:26.139Z,54.70
2018-03-15T19:56:54.192Z,54.90
2018-03-15T19:59:22.304Z,54.90
2018-03-15T20:01:50.373Z,55.10
2018-03-15T20:04:18.447Z,56.70
2018-03-15T20:06:46.512Z,57.10
2018-03-15T20:09:14.582Z,57.10
2018-03-15T20:11:42.617Z,56.30
2018-03-15T20:14:10.732Z,56.10
2018-03-15T20:16:38.749Z,55.80
2018-03-15T20:19:12.244Z,55.50
2018-03-15T20:21:41.669Z,56.20
2018-03-15T20:24:15.172Z,56.30
2018-03-15T20:26:43.206Z,55.90
2018-03-15T20:29:11.256Z,55.40
2018-03-15T20:31:41.660Z,55.10
2018-03-15T20:34:12.940Z,55.30
2018-03-15T20:36:46.281Z,55.50
2018-03-15T20:39:23.149Z,55.00
2018-03-15T20:41:51.206Z,54.80
2018-03-15T20:44:19.262Z,54.50
2018-03-15T20:46:52.843Z,54.50
2018-03-15T20:49:20.928Z,54.40
2018-03-15T20:51:50.481Z,54.40
2018-03-15T20:54:18.558Z,54.40
2018-03-15T20:56:46.606Z,54.10
2018-03-15T20:59:15.770Z,54.10
2018-03-15T21:01:43.838Z,54.20
2018-03-15T21:04:11.913Z,53.90
2018-03-15T21:06:40.181Z,53.80
2018-03-15T21:09:16.627Z,53.40
2018-03-15T21:11:45.938Z,52.60
2018-03-15T21:14:14.089Z,53.10
2018-03-15T21:16:42.139Z,53.80
2018-03-15T21:19:10.947Z,54.30
2018-03-15T21:21:39.117Z,54.20
2018-03-15T21:24:07.951Z,54.40
2018-03-15T21:26:36.002Z,54.40
2018-03-15T21:29:04.013Z,54.10
2018-03-15T21:31:32.083Z,54.20
2018-03-15T21:34:00.137Z,54.20
2018-03-15T21:36:28.175Z,54.40
2018-03-15T21:38:56.257Z,54.20
2018-03-15T21:41:25.085Z,54.20
2018-03-15T21:43:53.167Z,54.10
2018-03-15T21:46:21.209Z,54.10
2018-03-15T21:48:49.272Z,54.10
2018-03-15T21:51:17.357Z,54.10
2018-03-15T21:53:45.410Z,54.20
2018-03-15T21:56:13.462Z,54.10
2018-03-15T21:58:41.545Z,54.00
2018-03-15T22:01:09.625Z,53.60
2018-03-15T22:03:37.690Z,53.60
2018-03-15T22:06:05.756Z,53.40
2018-03-15T22:08:33.807Z,53.50
2018-03-15T22:11:01.862Z,53.50
2018-03-15T22:13:29.920Z,53.60
2018-03-15T22:15:58.004Z,53.60
2018-03-15T22:18:26.060Z,53.60
2018-03-15T22:20:54.092Z,53.60
2018-03-15T22:23:22.148Z,53.60
2018-03-15T22:25:50.200Z,53.60
2018-03-15T22:28:18.296Z,53.60
2018-03-15T22:30:46.396Z,53.60
2018-03-15T22:33:14.468Z,53.70
2018-03-15T22:35:42.510Z,53.60
2018-03-15T22:38:11.310Z,53.70
2018-03-15T22:40:39.367Z,53.60
2018-03-15T22:43:07.408Z,53.60
2018-03-15T22:45:35.515Z,53.60
2018-03-15T22:48:03.549Z,53.60
2018-03-15T22:50:31.585Z,53.70
2018-03-15T22:52:59.645Z,53.70
2018-03-15T22:55:28.447Z,53.70
2018-03-15T22:57:56.460Z,53.70
2018-03-15T23:00:24.502Z,53.70
2018-03-15T23:02:52.547Z,53.60
2018-03-15T23:05:20.625Z,53.70
2018-03-15T23:07:48.658Z,53.60
2018-03-15T23:10:16.718Z,53.60
2018-03-15T23:12:44.759Z,53.60
2018-03-15T23:15:12.803Z,53.60
2018-03-15T23:17:40.893Z,53.60
2018-03-15T23:20:08.952Z,53.60
2018-03-15T23:22:36.969Z,53.60
2018-03-15T23:25:04.997Z,53.50
2018-03-15T23:27:33.032Z,53.50
2018-03-15T23:30:01.089Z,53.40
2018-03-15T23:32:29.129Z,53.40
2018-03-15T23:34:57.166Z,53.40
2018-03-15T23:37:25.195Z,53.50
2018-03-15T23:39:53.238Z,53.40
2018-03-15T23:42:21.326Z,53.30
2018-03-15T23:44:49.394Z,53.30
2018-03-15T23:47:17.433Z,53.40
2018-03-15T23:49:45.470Z,53.40
2018-03-15T23:52:13.520Z,53.40
2018-03-15T23:54:41.575Z,54.20
2018-03-15T23:57:09.645Z,53.60
2018-03-15T23:59:37.701Z,53.50
